KFHR Airport Information

Runway Information
Runway 16 Length 3402 ft width 75 ft
Elevation 113 ft Threshold 0 ft Heading 177
Runway 34 Length 3402 ft Width 75 ft
Elevation 84 ft Threshold 0 ft Heading 357
Airport Frequencies
Type A/D Name WHIDBEY AP Frequency 118.2 MHZ
Type ASOS Name ASOS Frequency 135.675 MHZ
Type CTAF Name CTAF Frequency 128.25 MHZ
Airport Navaids
Airport Weather Information & NOTAM
ADDS - METARS form results

(0745 UTC 16 December 2018)
Data provider http://aviationweather.gov/metar/data/
 
METAR text: KFHR 160653Z AUTO 13020G32KT 10SM BKN085 OVC110 08/03 A2980 RMK AO2 PK WND 13033/0620 SLP090 T00830028 $
Conditions at: KFHR (FRIDAY HARBOR , WA, US) observed 0653 UTC 16 December 2018
Temperature: 8.3°C (47°F)
Dewpoint: 2.8°C (37°F) [RH = 68%]
Pressure (altimeter): 29.80 inches Hg (1009.2 mb)
[Sea-level pressure: 1009.0 mb]
Winds: from the SE (130 degrees) at 23 MPH (20 knots; 10.3 m/s)
gusting to 37 MPH (32 knots; 16.5 m/s)
Visibility: 10 or more miles (16+ km)
Ceiling: 8500 feet AGL
Clouds: broken clouds at 8500 feet AGL
overcast cloud deck at 11000 feet AGL
Weather:
SOME DATA ABOVE MAY BE INACCURATE!!!
"$" is an indication the sensor requires maintenance